sensor_id;sensor_type;location;lat;lon;timestamp;pressure;altitude;pressure_sealevel;temperature;humidity
48053;BME280;33824;51.600;5.718;2023-01-29T00:01:06;102911.34;;;0.14;84.40
48053;BME280;33824;51.600;5.718;2023-01-29T00:03:35;102910.91;;;0.26;84.89
48053;BME280;33824;51.600;5.718;2023-01-29T00:06:05;102913.41;;;0.29;84.69
48053;BME280;33824;51.600;5.718;2023-01-29T00:08:35;102906.25;;;0.32;84.60
48053;BME280;33824;51.600;5.718;2023-01-29T00:11:02;102904.41;;;0.34;85.31
48053;BME280;33824;51.600;5.718;2023-01-29T00:13:27;102906.03;;;0.38;85.05
48053;BME280;33824;51.600;5.718;2023-01-29T00:15:55;102900.84;;;0.37;84.88
48053;BME280;33824;51.600;5.718;2023-01-29T00:18:21;102892.13;;;0.36;84.98
48053;BME280;33824;51.600;5.718;2023-01-29T00:20:47;102893.19;;;0.31;85.48
48053;BME280;33824;51.600;5.718;2023-01-29T00:23:12;102884.66;;;0.26;86.05
48053;BME280;33824;51.600;5.718;2023-01-29T00:25:40;102882.09;;;0.24;85.72
48053;BME280;33824;51.600;5.718;2023-01-29T00:28:06;102888.31;;;0.22;85.53
48053;BME280;33824;51.600;5.718;2023-01-29T00:30:32;102878.75;;;0.19;85.30
48053;BME280;33824;51.600;5.718;2023-01-29T00:32:58;102879.88;;;0.14;86.08
48053;BME280;33824;51.600;5.718;2023-01-29T00:35:24;102876.38;;;0.13;85.17
48053;BME280;33824;51.600;5.718;2023-01-29T00:37:49;102876.69;;;0.06;85.53
48053;BME280;33824;51.600;5.718;2023-01-29T00:40:15;102872.41;;;0.03;86.20
48053;BME280;33824;51.600;5.718;2023-01-29T00:42:43;102869.06;;;-0.01;85.52
48053;BME280;33824;51.600;5.718;2023-01-29T00:45:27;102865.84;;;-0.09;86.15
48053;BME280;33824;51.600;5.718;2023-01-29T00:47:56;102860.72;;;-0.12;86.10
48053;BME280;33824;51.600;5.718;2023-01-29T00:50:22;102854.81;;;-0.18;86.76
48053;BME280;33824;51.600;5.718;2023-01-29T00:52:47;102853.03;;;-0.16;86.51
48053;BME280;33824;51.600;5.718;2023-01-29T00:55:14;102851.34;;;-0.19;86.58
48053;BME280;33824;51.600;5.718;2023-01-29T00:57:40;102844.41;;;-0.20;86.90
48053;BME280;33824;51.600;5.718;2023-01-29T01:00:08;102838.25;;;-0.19;86.44
48053;BME280;33824;51.600;5.718;2023-01-29T01:02:35;102843.59;;;-0.22;86.67
48053;BME280;33824;51.600;5.718;2023-01-29T01:05:19;102836.75;;;-0.26;86.68
48053;BME280;33824;51.600;5.718;2023-01-29T01:07:50;102838.72;;;-0.31;86.51
48053;BME280;33824;51.600;5.718;2023-01-29T01:10:38;102832.72;;;-0.34;87.02
48053;BME280;33824;51.600;5.718;2023-01-29T01:13:05;102837.03;;;-0.33;86.35
48053;BME280;33824;51.600;5.718;2023-01-29T01:15:34;102839.78;;;-0.36;86.56
48053;BME280;33824;51.600;5.718;2023-01-29T01:18:02;102840.63;;;-0.36;87.00
48053;BME280;33824;51.600;5.718;2023-01-29T01:20:31;102840.63;;;-0.36;86.91
48053;BME280;33824;51.600;5.718;2023-01-29T01:22:56;102838.88;;;-0.35;87.15
48053;BME280;33824;51.600;5.718;2023-01-29T01:25:24;102839.66;;;-0.33;86.91
48053;BME280;33824;51.600;5.718;2023-01-29T01:27:53;102843.31;;;-0.37;86.93
48053;BME280;33824;51.600;5.718;2023-01-29T01:30:19;102833.63;;;-0.35;87.46
48053;BME280;33824;51.600;5.718;2023-01-29T01:32:45;102838.88;;;-0.35;87.63
48053;BME280;33824;51.600;5.718;2023-01-29T01:35:11;102846.75;;;-0.35;87.41
48053;BME280;33824;51.600;5.718;2023-01-29T01:37:39;102839.78;;;-0.36;86.86
48053;BME280;33824;51.600;5.718;2023-01-29T01:40:18;102842.63;;;-0.42;86.87
48053;BME280;33824;51.600;5.718;2023-01-29T01:42:46;102847.69;;;-0.38;87.27
48053;BME280;33824;51.600;5.718;2023-01-29T01:45:28;102846.19;;;-0.45;86.95
48053;BME280;33824;51.600;5.718;2023-01-29T01:53:05;102853.19;;;-0.45;85.92
48053;BME280;33824;51.600;5.718;2023-01-29T01:55:34;102859.41;;;-0.48;86.05
48053;BME280;33824;51.600;5.718;2023-01-29T01:58:07;102849.91;;;-0.51;85.80
48053;BME280;33824;51.600;5.718;2023-01-29T02:00:35;102858.66;;;-0.52;86.00
48053;BME280;33824;51.600;5.718;2023-01-29T02:03:00;102854.56;;;-0.59;86.85
48053;BME280;33824;51.600;5.718;2023-01-29T02:05:45;102849.31;;;-0.59;86.45
48053;BME280;33824;51.600;5.718;2023-01-29T02:08:59;102853.34;;;-0.73;87.80
48053;BME280;33824;51.600;5.718;2023-01-29T02:11:45;102859.34;;;-0.71;87.46
48053;BME280;33824;51.600;5.718;2023-01-29T02:14:11;102851.56;;;-0.73;87.85
48053;BME280;33824;51.600;5.718;2023-01-29T02:16:37;102855.09;;;-0.74;88.17
48053;BME280;33824;51.600;5.718;2023-01-29T02:19:13;102853.75;;;-0.85;88.38
48053;BME280;33824;51.600;5.718;2023-01-29T02:24:35;102867.81;;;-0.88;88.76
48053;BME280;33824;51.600;5.718;2023-01-29T02:27:13;102872.28;;;-0.91;88.51
48053;BME280;33824;51.600;5.718;2023-01-29T02:29:50;102866.88;;;-0.87;88.12
48053;BME280;33824;51.600;5.718;2023-01-29T02:35:38;102870.97;;;-0.78;87.64
48053;BME280;33824;51.600;5.718;2023-01-29T02:38:16;102861.63;;;-0.87;88.08
48053;BME280;33824;51.600;5.718;2023-01-29T02:40:45;102856.09;;;-0.78;88.70
48053;BME280;33824;51.600;5.718;2023-01-29T02:43:43;102858.13;;;-0.86;88.42
48053;BME280;33824;51.600;5.718;2023-01-29T02:46:15;102863.09;;;-0.78;88.72
48053;BME280;33824;51.600;5.718;2023-01-29T02:48:53;102868.81;;;-0.67;89.16
48053;BME280;33824;51.600;5.718;2023-01-29T02:51:25;102859.75;;;-0.57;88.11
48053;BME280;33824;51.600;5.718;2023-01-29T02:54:16;102864.44;;;-0.67;88.41
48053;BME280;33824;51.600;5.718;2023-01-29T02:56:53;102860.59;;;-0.57;88.09
48053;BME280;33824;51.600;5.718;2023-01-29T02:59:23;102857.66;;;-0.47;88.92
48053;BME280;33824;51.600;5.718;2023-01-29T03:01:57;102862.00;;;-0.46;88.57
48053;BME280;33824;51.600;5.718;2023-01-29T03:04:30;102855.63;;;-0.39;88.81
48053;BME280;33824;51.600;5.718;2023-01-29T03:06:59;102851.06;;;-0.34;87.98
48053;BME280;33824;51.600;5.718;2023-01-29T03:09:37;102848.72;;;-0.42;88.45
48053;BME280;33824;51.600;5.718;2023-01-29T03:12:16;102859.03;;;-0.37;88.29
48053;BME280;33824;51.600;5.718;2023-01-29T03:15:01;102838.47;;;-0.25;88.43
48053;BME280;33824;51.600;5.718;2023-01-29T03:17:43;102861.91;;;-0.20;87.93
48053;BME280;33824;51.600;5.718;2023-01-29T03:20:14;102858.16;;;-0.13;88.28
48053;BME280;33824;51.600;5.718;2023-01-29T03:22:43;102857.34;;;-0.15;88.13
48053;BME280;33824;51.600;5.718;2023-01-29T03:25:12;102846.81;;;-0.14;88.31
48053;BME280;33824;51.600;5.718;2023-01-29T03:27:59;102856.16;;;-0.07;88.06
48053;BME280;33824;51.600;5.718;2023-01-29T03:30:55;102857.63;;;0.00;87.83
48053;BME280;33824;51.600;5.718;2023-01-29T03:33:47;102851.88;;;-0.09;88.24
48053;BME280;33824;51.600;5.718;2023-01-29T03:36:22;102856.97;;;-0.05;87.85
48053;BME280;33824;51.600;5.718;2023-01-29T03:38:50;102858.31;;;0.06;88.05
48053;BME280;33824;51.600;5.718;2023-01-29T03:41:27;102853.81;;;0.09;87.58
48053;BME280;33824;51.600;5.718;2023-01-29T03:44:13;102849.75;;;0.24;87.63
48053;BME280;33824;51.600;5.718;2023-01-29T03:46:49;102844.75;;;0.18;86.92
48053;BME280;33824;51.600;5.718;2023-01-29T03:52:14;102835.22;;;0.15;87.29
48053;BME280;33824;51.600;5.718;2023-01-29T03:57:12;102828.13;;;0.17;87.31
48053;BME280;33824;51.600;5.718;2023-01-29T04:00:09;102829.97;;;0.15;87.10
48053;BME280;33824;51.600;5.718;2023-01-29T04:03:08;102831.53;;;0.19;87.32
48053;BME280;33824;51.600;5.718;2023-01-29T04:05:59;102822.94;;;0.16;86.88
48053;BME280;33824;51.600;5.718;2023-01-29T04:08:39;102817.31;;;0.26;87.04
48053;BME280;33824;51.600;5.718;2023-01-29T04:11:12;102808.41;;;0.30;87.03
48053;BME280;33824;51.600;5.718;2023-01-29T04:13:39;102809.91;;;0.36;87.52
48053;BME280;33824;51.600;5.718;2023-01-29T04:16:09;102806.38;;;0.37;86.87
48053;BME280;33824;51.600;5.718;2023-01-29T04:18:37;102808.75;;;0.43;86.82
48053;BME280;33824;51.600;5.718;2023-01-29T04:21:03;102807.53;;;0.52;86.79
48053;BME280;33824;51.600;5.718;2023-01-29T04:23:32;102805.94;;;0.47;86.61
48053;BME280;33824;51.600;5.718;2023-01-29T04:29:08;102807.78;;;0.45;87.34
48053;BME280;33824;51.600;5.718;2023-01-29T04:32:02;102811.50;;;0.40;86.57
48053;BME280;33824;51.600;5.718;2023-01-29T04:37:17;102809.88;;;0.58;86.67
48053;BME280;33824;51.600;5.718;2023-01-29T04:58:47;102748.97;;;0.49;86.96
48053;BME280;33824;51.600;5.718;2023-01-29T05:01:16;102740.72;;;0.59;87.09
48053;BME280;33824;51.600;5.718;2023-01-29T05:03:47;102739.75;;;0.61;86.68
48053;BME280;33824;51.600;5.718;2023-01-29T05:06:15;102743.41;;;0.57;87.39
48053;BME280;33824;51.600;5.718;2023-01-29T05:08:41;102746.25;;;0.53;87.55
48053;BME280;33824;51.600;5.718;2023-01-29T05:11:07;102740.91;;;0.54;87.69
48053;BME280;33824;51.600;5.718;2023-01-29T05:13:36;102739.97;;;0.57;87.69
48053;BME280;33824;51.600;5.718;2023-01-29T05:16:19;102738.56;;;0.48;87.46
48053;BME280;33824;51.600;5.718;2023-01-29T05:18:46;102745.31;;;0.54;87.43
48053;BME280;33824;51.600;5.718;2023-01-29T05:21:12;102728.66;;;0.55;87.62
48053;BME280;33824;51.600;5.718;2023-01-29T05:23:38;102718.88;;;0.58;87.35
48053;BME280;33824;51.600;5.718;2023-01-29T05:26:04;102720.53;;;0.61;87.22
48053;BME280;33824;51.600;5.718;2023-01-29T05:28:30;102720.72;;;0.56;87.77
48053;BME280;33824;51.600;5.718;2023-01-29T05:30:56;102720.06;;;0.51;87.94
48053;BME280;33824;51.600;5.718;2023-01-29T05:33:26;102726.22;;;0.50;87.98
48053;BME280;33824;51.600;5.718;2023-01-29T05:35:53;102728.41;;;0.61;87.96
48053;BME280;33824;51.600;5.718;2023-01-29T05:38:20;102717.66;;;0.67;87.76
48053;BME280;33824;51.600;5.718;2023-01-29T05:40:46;102722.91;;;0.67;88.00
48053;BME280;33824;51.600;5.718;2023-01-29T05:43:15;102724.13;;;0.58;88.05
48053;BME280;33824;51.600;5.718;2023-01-29T05:45:42;102730.78;;;0.67;88.85
48053;BME280;33824;51.600;5.718;2023-01-29T05:48:07;102730.72;;;0.68;88.32
48053;BME280;33824;51.600;5.718;2023-01-29T05:50:33;102731.22;;;0.76;88.21
48053;BME280;33824;51.600;5.718;2023-01-29T05:53:00;102741.22;;;0.68;88.19
48053;BME280;33824;51.600;5.718;2023-01-29T05:55:27;102739.84;;;0.80;87.99
48053;BME280;33824;51.600;5.718;2023-01-29T05:57:54;102739.72;;;0.83;88.22
48053;BME280;33824;51.600;5.718;2023-01-29T06:00:20;102744.03;;;0.84;88.16
48053;BME280;33824;51.600;5.718;2023-01-29T06:02:46;102748.31;;;0.86;88.23
48053;BME280;33824;51.600;5.718;2023-01-29T06:05:12;102742.97;;;0.88;88.19
48053;BME280;33824;51.600;5.718;2023-01-29T06:07:37;102751.53;;;0.93;88.23
48053;BME280;33824;51.600;5.718;2023-01-29T06:10:04;102746.97;;;0.96;88.12
48053;BME280;33824;51.600;5.718;2023-01-29T06:12:30;102762.88;;;0.93;88.38
48053;BME280;33824;51.600;5.718;2023-01-29T06:14:56;102760.13;;;0.96;88.01
48053;BME280;33824;51.600;5.718;2023-01-29T06:17:21;102762.59;;;1.00;88.11
48053;BME280;33824;51.600;5.718;2023-01-29T06:19:47;102763.09;;;1.09;88.16
48053;BME280;33824;51.600;5.718;2023-01-29T06:22:12;102766.75;;;1.05;87.93
48053;BME280;33824;51.600;5.718;2023-01-29T06:24:38;102768.59;;;1.03;88.29
48053;BME280;33824;51.600;5.718;2023-01-29T06:27:03;102765.00;;;1.06;88.47
48053;BME280;33824;51.600;5.718;2023-01-29T06:29:29;102757.81;;;1.09;88.33
48053;BME280;33824;51.600;5.718;2023-01-29T06:31:55;102740.53;;;1.04;88.32
48053;BME280;33824;51.600;5.718;2023-01-29T06:34:20;102723.88;;;1.05;88.64
48053;BME280;33824;51.600;5.718;2023-01-29T06:36:46;102728.44;;;1.20;87.92
48053;BME280;33824;51.600;5.718;2023-01-29T06:39:11;102734.56;;;1.20;87.65
48053;BME280;33824;51.600;5.718;2023-01-29T06:41:37;102736.38;;;1.18;88.06
48053;BME280;33824;51.600;5.718;2023-01-29T06:44:03;102735.34;;;1.22;87.53
48053;BME280;33824;51.600;5.718;2023-01-29T06:46:28;102733.22;;;1.30;87.65
48053;BME280;33824;51.600;5.718;2023-01-29T06:48:57;102731.66;;;1.26;87.61
48053;BME280;33824;51.600;5.718;2023-01-29T06:51:22;102721.03;;;1.29;87.35
48053;BME280;33824;51.600;5.718;2023-01-29T06:53:48;102727.91;;;1.32;87.58
48053;BME280;33824;51.600;5.718;2023-01-29T06:56:13;102722.56;;;1.33;87.47
48053;BME280;33824;51.600;5.718;2023-01-29T06:58:39;102731.19;;;1.37;87.14
48053;BME280;33824;51.600;5.718;2023-01-29T07:01:07;102720.72;;;1.35;87.28
48053;BME280;33824;51.600;5.718;2023-01-29T07:03:33;102715.34;;;1.38;86.89
48053;BME280;33824;51.600;5.718;2023-01-29T07:05:59;102713.97;;;1.30;87.01
48053;BME280;33824;51.600;5.718;2023-01-29T07:08:25;102714.63;;;1.35;87.27
48053;BME280;33824;51.600;5.718;2023-01-29T07:10:50;102721.50;;;1.37;87.25
48053;BME280;33824;51.600;5.718;2023-01-29T07:13:16;102728.47;;;1.38;87.51
48053;BME280;33824;51.600;5.718;2023-01-29T07:15:42;102725.84;;;1.38;87.58
48053;BME280;33824;51.600;5.718;2023-01-29T07:18:09;102734.38;;;1.43;86.92
48053;BME280;33824;51.600;5.718;2023-01-29T07:20:39;102734.25;;;1.47;87.28
48053;BME280;33824;51.600;5.718;2023-01-29T07:23:05;102729.50;;;1.55;86.61
48053;BME280;33824;51.600;5.718;2023-01-29T07:25:32;102725.25;;;1.52;86.88
48053;BME280;33824;51.600;5.718;2023-01-29T07:28:01;102729.75;;;1.49;86.82
48053;BME280;33824;51.600;5.718;2023-01-29T07:30:28;102726.16;;;1.51;86.73
48053;BME280;33824;51.600;5.718;2023-01-29T07:32:53;102714.72;;;1.52;86.61
48053;BME280;33824;51.600;5.718;2023-01-29T07:35:19;102710.03;;;1.59;86.40
48053;BME280;33824;51.600;5.718;2023-01-29T07:37:48;102713.56;;;1.58;86.49
48053;BME280;33824;51.600;5.718;2023-01-29T07:40:14;102721.09;;;1.65;86.79
48053;BME280;33824;51.600;5.718;2023-01-29T07:42:39;102714.13;;;1.64;86.41
48053;BME280;33824;51.600;5.718;2023-01-29T07:45:07;102715.06;;;1.63;86.53
48053;BME280;33824;51.600;5.718;2023-01-29T07:47:33;102703.19;;;1.55;86.47
48053;BME280;33824;51.600;5.718;2023-01-29T07:49:59;102712.44;;;1.63;86.36
48053;BME280;33824;51.600;5.718;2023-01-29T07:52:25;102722.88;;;1.65;86.31
48053;BME280;33824;51.600;5.718;2023-01-29T07:54:50;102713.28;;;1.64;86.55
48053;BME280;33824;51.600;5.718;2023-01-29T07:57:16;102711.44;;;1.66;86.41
48053;BME280;33824;51.600;5.718;2023-01-29T07:59:41;102715.84;;;1.65;86.32
48053;BME280;33824;51.600;5.718;2023-01-29T08:02:08;102713.06;;;1.68;86.74
48053;BME280;33824;51.600;5.718;2023-01-29T08:04:33;102714.72;;;1.71;86.33
48053;BME280;33824;51.600;5.718;2023-01-29T08:06:59;102705.19;;;1.68;86.17
48053;BME280;33824;51.600;5.718;2023-01-29T08:09:24;102705.19;;;1.68;86.27
48053;BME280;33824;51.600;5.718;2023-01-29T08:11:50;102712.84;;;1.73;86.51
48053;BME280;33824;51.600;5.718;2023-01-29T08:14:15;102716.28;;;1.75;86.38
48053;BME280;33824;51.600;5.718;2023-01-29T08:16:41;102715.34;;;1.76;86.35
48053;BME280;33824;51.600;5.718;2023-01-29T08:19:07;102699.50;;;1.77;86.08
48053;BME280;33824;51.600;5.718;2023-01-29T08:21:32;102701.97;;;1.80;86.12
48053;BME280;33824;51.600;5.718;2023-01-29T08:23:58;102697.63;;;1.79;86.29
48053;BME280;33824;51.600;5.718;2023-01-29T08:26:23;102694.63;;;1.87;86.19
48053;BME280;33824;51.600;5.718;2023-01-29T08:28:50;102695.50;;;1.87;86.08
48053;BME280;33824;51.600;5.718;2023-01-29T08:31:17;102690.31;;;1.86;86.00
48053;BME280;33824;51.600;5.718;2023-01-29T08:33:45;102679.88;;;1.84;86.28
48053;BME280;33824;51.600;5.718;2023-01-29T08:36:11;102677.94;;;1.88;86.04
48053;BME280;33824;51.600;5.718;2023-01-29T08:38:37;102682.91;;;1.94;85.87
48053;BME280;33824;51.600;5.718;2023-01-29T08:41:03;102682.97;;;1.92;85.87
48053;BME280;33824;51.600;5.718;2023-01-29T08:43:29;102676.56;;;1.98;85.89
48053;BME280;33824;51.600;5.718;2023-01-29T08:45:54;102678.47;;;1.94;85.85
48053;BME280;33824;51.600;5.718;2023-01-29T08:48:20;102678.28;;;1.99;85.70
48053;BME280;33824;51.600;5.718;2023-01-29T08:50:46;102683.69;;;1.96;85.87
48053;BME280;33824;51.600;5.718;2023-01-29T08:53:11;102679.19;;;1.98;86.11
48053;BME280;33824;51.600;5.718;2023-01-29T08:55:38;102682.56;;;2.02;85.77
48053;BME280;33824;51.600;5.718;2023-01-29T08:58:05;102673.81;;;2.01;86.21
48053;BME280;33824;51.600;5.718;2023-01-29T09:00:33;102670.16;;;2.04;86.05
48053;BME280;33824;51.600;5.718;2023-01-29T09:02:58;102671.88;;;2.05;86.35
48053;BME280;33824;51.600;5.718;2023-01-29T09:05:26;102667.47;;;2.05;86.15
48053;BME280;33824;51.600;5.718;2023-01-29T09:07:53;102660.97;;;2.12;85.82
48053;BME280;33824;51.600;5.718;2023-01-29T09:10:18;102666.38;;;2.09;86.01
48053;BME280;33824;51.600;5.718;2023-01-29T09:12:44;102652.28;;;2.10;86.25
48053;BME280;33824;51.600;5.718;2023-01-29T09:15:10;102654.22;;;2.07;86.07
48053;BME280;33824;51.600;5.718;2023-01-29T09:17:36;102654.22;;;2.07;86.11
48053;BME280;33824;51.600;5.718;2023-01-29T09:20:01;102651.22;;;2.14;86.08
48053;BME280;33824;51.600;5.718;2023-01-29T09:22:27;102645.03;;;2.15;85.99
48053;BME280;33824;51.600;5.718;2023-01-29T09:24:53;102647.44;;;2.20;85.63
48053;BME280;33824;51.600;5.718;2023-01-29T09:27:18;102651.69;;;2.22;85.79
48053;BME280;33824;51.600;5.718;2023-01-29T09:29:44;102649.91;;;2.23;85.88
48053;BME280;33824;51.600;5.718;2023-01-29T09:32:09;102656.03;;;2.23;85.59
48053;BME280;33824;51.600;5.718;2023-01-29T09:34:35;102656.63;;;2.28;85.22
48053;BME280;33824;51.600;5.718;2023-01-29T09:37:00;102653.06;;;2.29;84.96
48053;BME280;33824;51.600;5.718;2023-01-29T09:39:26;102656.56;;;2.30;85.10
48053;BME280;33824;51.600;5.718;2023-01-29T09:41:57;102667.47;;;2.22;84.75
48053;BME280;33824;51.600;5.718;2023-01-29T09:46:52;102661.38;;;2.39;84.56
48053;BME280;33824;51.600;5.718;2023-01-29T09:49:24;102654.34;;;2.39;84.43
48053;BME280;33824;51.600;5.718;2023-01-29T09:52:01;102653.22;;;2.26;84.25
48053;BME280;33824;51.600;5.718;2023-01-29T09:54:35;102655.16;;;2.40;84.47
48053;BME280;33824;51.600;5.718;2023-01-29T09:57:09;102656.56;;;2.47;84.31
48053;BME280;33824;51.600;5.718;2023-01-29T09:59:40;102647.50;;;2.53;84.48
48053;BME280;33824;51.600;5.718;2023-01-29T10:17:49;102656.16;;;2.72;82.92
48053;BME280;33824;51.600;5.718;2023-01-29T10:20:42;102656.72;;;2.61;82.58
48053;BME280;33824;51.600;5.718;2023-01-29T10:23:17;102652.38;;;2.77;82.96
48053;BME280;33824;51.600;5.718;2023-01-29T10:25:46;102647.22;;;2.92;82.97
48053;BME280;33824;51.600;5.718;2023-01-29T10:28:20;102650.59;;;2.94;82.21
48053;BME280;33824;51.600;5.718;2023-01-29T10:30:50;102644.66;;;2.90;82.22
48053;BME280;33824;51.600;5.718;2023-01-29T10:33:19;102651.69;;;2.89;82.45
48053;BME280;33824;51.600;5.718;2023-01-29T10:35:52;102650.78;;;2.90;82.23
48053;BME280;33824;51.600;5.718;2023-01-29T10:55:35;102646.53;;;2.88;80.43
48053;BME280;33824;51.600;5.718;2023-01-29T10:57:50;102633.69;;;2.98;81.41
48053;BME280;33824;51.600;5.718;2023-01-29T11:00:21;102632.53;;;3.03;81.34
48053;BME280;33824;51.600;5.718;2023-01-29T11:02:50;102624.28;;;3.09;81.39
48053;BME280;33824;51.600;5.718;2023-01-29T11:05:36;102618.16;;;3.09;80.49
48053;BME280;33824;51.600;5.718;2023-01-29T11:08:17;102603.03;;;3.12;80.20
48053;BME280;33824;51.600;5.718;2023-01-29T11:10:52;102593.09;;;3.17;80.13
48053;BME280;33824;51.600;5.718;2023-01-29T11:13:21;102586.22;;;3.30;80.21
48053;BME280;33824;51.600;5.718;2023-01-29T11:15:50;102580.34;;;3.25;80.15
48053;BME280;33824;51.600;5.718;2023-01-29T11:18:17;102577.97;;;3.36;80.42
48053;BME280;33824;51.600;5.718;2023-01-29T11:20:43;102574.31;;;3.39;79.89
48053;BME280;33824;51.600;5.718;2023-01-29T11:23:31;102575.69;;;3.30;79.00
48053;BME280;33824;51.600;5.718;2023-01-29T11:25:58;102564.84;;;3.51;79.56
48053;BME280;33824;51.600;5.718;2023-01-29T11:28:41;102560.13;;;3.42;79.17
48053;BME280;33824;51.600;5.718;2023-01-29T11:31:25;102560.53;;;3.34;77.96
48053;BME280;33824;51.600;5.718;2023-01-29T11:33:53;102552.94;;;3.59;79.20
48053;BME280;33824;51.600;5.718;2023-01-29T11:39:14;102538.72;;;3.62;77.70
48053;BME280;33824;51.600;5.718;2023-01-29T11:42:02;102543.31;;;3.58;77.39
48053;BME280;33824;51.600;5.718;2023-01-29T11:44:41;102529.97;;;3.61;77.63
48053;BME280;33824;51.600;5.718;2023-01-29T11:47:20;102524.81;;;3.74;77.27
48053;BME280;33824;51.600;5.718;2023-01-29T11:49:50;102515.91;;;3.76;77.95
48053;BME280;33824;51.600;5.718;2023-01-29T11:52:19;102513.38;;;3.89;77.41
48053;BME280;33824;51.600;5.718;2023-01-29T11:54:52;102508.75;;;3.93;77.06
48053;BME280;33824;51.600;5.718;2023-01-29T11:57:29;102500.09;;;3.91;76.96
48053;BME280;33824;51.600;5.718;2023-01-29T12:00:01;102494.25;;;4.00;77.44
48053;BME280;33824;51.600;5.718;2023-01-29T12:02:33;102487.56;;;3.94;77.08
48053;BME280;33824;51.600;5.718;2023-01-29T12:05:21;102483.00;;;3.82;76.97
48053;BME280;33824;51.600;5.718;2023-01-29T12:07:49;102481.22;;;3.82;77.09
48053;BME280;33824;51.600;5.718;2023-01-29T12:15:39;102462.34;;;3.74;75.96
48053;BME280;33824;51.600;5.718;2023-01-29T12:20:53;102454.75;;;3.54;76.05
48053;BME280;33824;51.600;5.718;2023-01-29T12:34:31;102437.88;;;3.72;76.50
48053;BME280;33824;51.600;5.718;2023-01-29T12:37:01;102433.41;;;3.73;76.23
48053;BME280;33824;51.600;5.718;2023-01-29T12:39:28;102436.25;;;3.70;76.57
48053;BME280;33824;51.600;5.718;2023-01-29T12:42:02;102425.63;;;3.71;76.30
48053;BME280;33824;51.600;5.718;2023-01-29T12:44:37;102417.31;;;3.77;76.58
48053;BME280;33824;51.600;5.718;2023-01-29T12:47:16;102422.97;;;3.71;76.47
48053;BME280;33824;51.600;5.718;2023-01-29T12:49:46;102416.38;;;3.78;76.83
48053;BME280;33824;51.600;5.718;2023-01-29T12:52:19;102406.75;;;3.77;76.41
48053;BME280;33824;51.600;5.718;2023-01-29T12:54:59;102406.56;;;3.80;76.56
48053;BME280;33824;51.600;5.718;2023-01-29T12:57:37;102400.16;;;3.70;76.44
48053;BME280;33824;51.600;5.718;2023-01-29T13:00:12;102399.31;;;3.70;76.61
48053;BME280;33824;51.600;5.718;2023-01-29T13:02:54;102411.56;;;3.71;76.53
48053;BME280;33824;51.600;5.718;2023-01-29T13:05:28;102398.50;;;3.83;76.63
48053;BME280;33824;51.600;5.718;2023-01-29T13:08:13;102397.38;;;3.88;76.52
48053;BME280;33824;51.600;5.718;2023-01-29T13:10:42;102389.47;;;3.88;76.78
48053;BME280;33824;51.600;5.718;2023-01-29T13:13:32;102394.81;;;3.72;76.15
48053;BME280;33824;51.600;5.718;2023-01-29T13:15:59;102384.56;;;3.96;77.00
48053;BME280;33824;51.600;5.718;2023-01-29T13:21:17;102369.84;;;3.92;76.67
48053;BME280;33824;51.600;5.718;2023-01-29T13:23:49;102367.09;;;3.93;77.26
48053;BME280;33824;51.600;5.718;2023-01-29T13:26:19;102368.34;;;3.88;76.55
48053;BME280;33824;51.600;5.718;2023-01-29T13:28:47;102372.03;;;3.99;76.90
48053;BME280;33824;51.600;5.718;2023-01-29T13:31:27;102356.00;;;3.88;76.63
48053;BME280;33824;51.600;5.718;2023-01-29T13:36:27;102349.31;;;4.11;76.84
48053;BME280;33824;51.600;5.718;2023-01-29T13:39:02;102349.59;;;4.06;77.07
48053;BME280;33824;51.600;5.718;2023-01-29T13:41:31;102343.16;;;4.24;76.80
48053;BME280;33824;51.600;5.718;2023-01-29T13:43:58;102342.56;;;4.19;76.99
48053;BME280;33824;51.600;5.718;2023-01-29T13:46:23;102341.25;;;4.26;76.75
48053;BME280;33824;51.600;5.718;2023-01-29T13:48:50;102332.97;;;4.18;76.99
48053;BME280;33824;51.600;5.718;2023-01-29T13:51:20;102337.28;;;4.19;77.08
48053;BME280;33824;51.600;5.718;2023-01-29T13:53:59;102337.31;;;4.05;76.66
48053;BME280;33824;51.600;5.718;2023-01-29T13:59:01;102328.19;;;4.11;77.35
48053;BME280;33824;51.600;5.718;2023-01-29T14:06:46;102328.72;;;4.16;77.51
48053;BME280;33824;51.600;5.718;2023-01-29T14:09:57;102325.91;;;4.05;77.15
48053;BME280;33824;51.600;5.718;2023-01-29T14:17:14;102322.50;;;4.17;77.84
48053;BME280;33824;51.600;5.718;2023-01-29T14:20:16;102320.91;;;4.00;77.25
48053;BME280;33824;51.600;5.718;2023-01-29T14:22:42;102320.63;;;4.05;77.65
48053;BME280;33824;51.600;5.718;2023-01-29T14:25:16;102308.03;;;3.96;77.50
48053;BME280;33824;51.600;5.718;2023-01-29T14:27:46;102310.44;;;4.13;78.16
48053;BME280;33824;51.600;5.718;2023-01-29T14:30:18;102286.19;;;4.20;78.02
48053;BME280;33824;51.600;5.718;2023-01-29T14:32:48;102289.75;;;4.33;77.73
48053;BME280;33824;51.600;5.718;2023-01-29T14:37:46;102289.25;;;4.41;77.51
48053;BME280;33824;51.600;5.718;2023-01-29T14:40:22;102285.00;;;4.39;77.07
48053;BME280;33824;51.600;5.718;2023-01-29T14:45:31;102290.50;;;4.35;77.48
48053;BME280;33824;51.600;5.718;2023-01-29T14:53:21;102288.47;;;4.12;77.48
48053;BME280;33824;51.600;5.718;2023-01-29T15:01:03;102273.44;;;4.27;77.80
48053;BME280;33824;51.600;5.718;2023-01-29T15:06:05;102271.38;;;4.32;77.62
48053;BME280;33824;51.600;5.718;2023-01-29T15:08:40;102271.38;;;4.32;77.64
48053;BME280;33824;51.600;5.718;2023-01-29T15:11:14;102274.84;;;4.32;77.85
48053;BME280;33824;51.600;5.718;2023-01-29T15:14:17;102265.25;;;3.91;77.82
48053;BME280;33824;51.600;5.718;2023-01-29T15:17:13;102267.47;;;3.97;78.31
48053;BME280;33824;51.600;5.718;2023-01-29T15:19:44;102264.34;;;4.18;78.28
48053;BME280;33824;51.600;5.718;2023-01-29T15:22:18;102254.75;;;4.03;78.34
48053;BME280;33824;51.600;5.718;2023-01-29T15:24:45;102260.00;;;4.17;78.57
48053;BME280;33824;51.600;5.718;2023-01-29T15:27:15;102253.56;;;4.21;78.55
48053;BME280;33824;51.600;5.718;2023-01-29T15:29:43;102257.81;;;4.24;78.66
48053;BME280;33824;51.600;5.718;2023-01-29T15:32:21;102252.13;;;4.03;78.26